createdAt,value
2023-03-26T00:00:42.738Z,5.56
2023-03-26T00:05:45.778Z,5.68
2023-03-26T00:10:47.360Z,5.58
2023-03-26T00:15:50.181Z,5.68
2023-03-26T00:20:51.741Z,5.62
2023-03-26T00:25:53.345Z,5.71
2023-03-26T00:30:59.791Z,5.73
2023-03-26T00:36:03.259Z,5.63
2023-03-26T00:41:10.440Z,5.67
2023-03-26T00:46:13.748Z,5.63
2023-03-26T00:51:17.283Z,5.52
2023-03-26T00:56:19.218Z,5.57
2023-03-26T01:01:25.080Z,5.81
2023-03-26T01:06:29.618Z,5.85
2023-03-26T01:11:34.469Z,5.79
2023-03-26T01:16:42.045Z,5.58
2023-03-26T01:21:43.541Z,5.68
2023-03-26T01:27:11.904Z,5.74
2023-03-26T01:32:21.170Z,5.89
2023-03-26T01:37:27.413Z,5.83
2023-03-26T01:42:37.385Z,5.88
2023-03-26T01:47:41.935Z,5.96
2023-03-26T01:52:43.491Z,5.73
2023-03-26T01:57:59.261Z,5.64
2023-03-26T02:03:24.243Z,5.75
2023-03-26T02:08:31.466Z,5.91
2023-03-26T02:13:34.406Z,5.86
2023-03-26T02:18:36.234Z,5.97
2023-03-26T02:23:38.422Z,5.96
2023-03-26T02:28:41.411Z,5.87
2023-03-26T02:33:42.852Z,5.83
2023-03-26T02:38:44.298Z,5.69
2023-03-26T02:43:47.108Z,5.69
2023-03-26T02:48:48.551Z,5.67
2023-03-26T02:53:50.019Z,5.66
2023-03-26T02:58:53.177Z,5.72
2023-03-26T03:03:54.700Z,5.80
2023-03-26T03:08:56.282Z,5.76
2023-03-26T03:13:59.098Z,5.95
2023-03-26T03:19:00.516Z,5.92
2023-03-26T03:24:02.065Z,5.85
2023-03-26T03:29:04.902Z,5.72
2023-03-26T03:34:06.369Z,5.65
2023-03-26T03:39:07.769Z,5.78
2023-03-26T03:44:10.529Z,5.74
2023-03-26T03:49:13.264Z,5.68
2023-03-26T03:54:14.729Z,5.75
2023-03-26T03:59:17.513Z,5.73
2023-03-26T04:04:19.029Z,5.87
2023-03-26T04:09:20.551Z,5.78
2023-03-26T04:14:23.367Z,5.78
2023-03-26T04:19:24.902Z,5.69
2023-03-26T04:24:26.321Z,5.64
2023-03-26T04:29:34.345Z,5.74
2023-03-26T04:34:35.828Z,5.73
2023-03-26T04:39:37.383Z,5.72
2023-03-26T04:44:40.293Z,5.53
2023-03-26T04:49:41.889Z,5.56
2023-03-26T04:54:45.019Z,5.22
2023-03-26T04:59:47.835Z,5.11
2023-03-26T05:04:49.261Z,5.15
2023-03-26T05:09:50.871Z,5.27
2023-03-26T05:14:53.660Z,5.44
2023-03-26T05:19:55.116Z,5.41
2023-03-26T05:24:56.575Z,5.62
2023-03-26T05:30:02.081Z,5.56
2023-03-26T05:35:03.980Z,5.56
2023-03-26T05:40:07.363Z,5.40
2023-03-26T05:45:12.926Z,5.50
2023-03-26T05:50:14.422Z,5.44
2023-03-26T05:55:16.117Z,5.36
2023-03-26T06:00:18.990Z,5.56
2023-03-26T06:05:20.568Z,5.37
2023-03-26T06:10:22.012Z,5.54
2023-03-26T06:15:24.823Z,5.38
2023-03-26T06:20:26.370Z,5.53
2023-03-26T06:25:27.810Z,5.50
2023-03-26T06:30:30.567Z,5.62
2023-03-26T06:35:32.451Z,5.67
2023-03-26T06:40:34.512Z,5.61
2023-03-26T06:45:37.504Z,5.67
2023-03-26T06:50:38.967Z,5.50
2023-03-26T06:55:40.464Z,5.22
2023-03-26T07:00:43.445Z,5.33
2023-03-26T07:05:44.911Z,5.54
2023-03-26T07:10:46.539Z,5.50
2023-03-26T07:15:49.497Z,5.53
2023-03-26T07:20:51.482Z,5.58
2023-03-26T07:25:53.506Z,5.74
2023-03-26T07:31:16.194Z,5.89
2023-03-26T07:36:25.741Z,5.74
2023-03-26T07:41:35.254Z,5.79
2023-03-26T07:46:38.714Z,5.74
2023-03-26T07:51:40.767Z,5.73
2023-03-26T07:56:48.961Z,5.90
2023-03-26T08:02:04.771Z,5.93
2023-03-26T08:07:15.711Z,5.82
2023-03-26T08:12:24.369Z,5.53
2023-03-26T08:17:32.868Z,5.56
2023-03-26T08:22:38.024Z,5.05
2023-03-26T08:27:41.899Z,5.10
2023-03-26T08:32:52.973Z,4.83
2023-03-26T08:37:54.623Z,5.06
2023-03-26T08:43:40.137Z,4.95
2023-03-26T08:49:11.492Z,5.18
2023-03-26T08:54:52.586Z,5.08
2023-03-26T09:00:33.868Z,4.97
2023-03-26T09:06:04.757Z,5.06
2023-03-26T09:11:45.530Z,5.22
2023-03-26T09:17:14.462Z,5.40
2023-03-26T09:22:51.410Z,5.51
2023-03-26T09:28:29.544Z,5.45
2023-03-26T09:33:54.272Z,5.83
2023-03-26T09:39:02.607Z,5.93
2023-03-26T09:44:39.008Z,6.14
2023-03-26T09:49:49.497Z,5.94
2023-03-26T09:55:05.610Z,6.48
2023-03-26T10:00:22.619Z,6.80
2023-03-26T10:05:43.314Z,7.00
2023-03-26T10:16:06.155Z,8.13
2023-03-26T10:21:19.264Z,8.40
2023-03-26T10:27:08.442Z,8.46
2023-03-26T10:32:22.529Z,8.98
2023-03-26T10:37:36.961Z,9.12
2023-03-26T10:42:55.085Z,9.29
2023-03-26T10:48:26.344Z,9.13
2023-03-26T10:53:37.130Z,8.91
2023-03-26T10:58:49.361Z,8.71
2023-03-26T11:03:55.078Z,8.49
2023-03-26T11:09:05.534Z,8.06
2023-03-26T11:14:24.421Z,5.24
2023-03-26T11:19:40.872Z,6.28
2023-03-26T11:25:02.026Z,6.53
2023-03-26T11:30:16.796Z,6.85
2023-03-26T11:35:39.622Z,7.30
2023-03-26T11:40:45.910Z,7.46
2023-03-26T11:45:50.544Z,7.17
2023-03-26T11:50:58.250Z,6.87
2023-03-26T11:56:01.715Z,6.66
2023-03-26T12:01:05.310Z,5.50
2023-03-26T12:06:22.802Z,4.92
2023-03-26T12:11:26.542Z,5.10
2023-03-26T12:16:28.405Z,5.94
2023-03-26T12:21:44.671Z,6.49
2023-03-26T12:26:46.286Z,7.16
2023-03-26T12:31:55.789Z,7.25
2023-03-26T12:36:58.818Z,7.91
2023-03-26T12:44:44.553Z,8.03
2023-03-26T12:47:58.925Z,8.19
2023-03-26T12:53:00.374Z,8.92
2023-03-26T12:58:15.435Z,8.89
2023-03-26T13:03:29.966Z,9.10
2023-03-26T13:08:55.568Z,9.36
2023-03-26T13:14:21.766Z,9.42
2023-03-26T13:19:29.122Z,9.47
2023-03-26T13:24:43.806Z,10.00
2023-03-26T13:29:56.465Z,9.93
2023-03-26T13:35:10.436Z,9.57
2023-03-26T13:40:26.171Z,9.65
2023-03-26T13:45:42.645Z,9.50
2023-03-26T13:50:52.272Z,9.44
2023-03-26T13:55:57.869Z,9.27
2023-03-26T14:01:05.590Z,8.68
2023-03-26T14:06:12.712Z,8.82
2023-03-26T14:11:20.920Z,9.17
2023-03-26T14:16:24.926Z,9.52
2023-03-26T14:21:44.394Z,9.72
2023-03-26T14:27:09.098Z,9.92
2023-03-26T14:32:37.565Z,10.06
2023-03-26T14:37:54.842Z,10.06
2023-03-26T14:43:43.924Z,10.30
2023-03-26T14:49:22.855Z,10.09
2023-03-26T14:54:27.058Z,10.22
2023-03-26T14:59:56.706Z,9.99
2023-03-26T15:05:35.123Z,9.62
2023-03-26T15:11:01.143Z,10.09
2023-03-26T15:16:30.103Z,10.08
2023-03-26T15:22:14.625Z,9.66
2023-03-26T15:27:33.962Z,9.39
2023-03-26T15:33:13.827Z,9.19
2023-03-26T15:38:53.188Z,9.05
2023-03-26T15:44:26.276Z,8.69
2023-03-26T15:49:40.150Z,8.53
2023-03-26T15:54:52.095Z,8.58
2023-03-26T16:00:05.868Z,8.51
2023-03-26T16:05:27.364Z,8.45
2023-03-26T16:10:39.596Z,8.29
2023-03-26T16:15:41.805Z,7.74
2023-03-26T16:20:46.683Z,6.78
2023-03-26T16:26:00.508Z,6.59
2023-03-26T16:31:23.470Z,5.94
2023-03-26T16:36:44.279Z,5.86
2023-03-26T16:42:06.581Z,6.30
2023-03-26T16:47:19.175Z,6.16
2023-03-26T16:52:40.714Z,6.03
2023-03-26T16:57:48.676Z,6.32
2023-03-26T17:02:57.207Z,5.75
2023-03-26T17:08:05.058Z,5.93
2023-03-26T17:13:08.872Z,5.62
2023-03-26T17:18:32.100Z,5.74
2023-03-26T17:23:55.196Z,5.33
2023-03-26T17:29:16.431Z,5.27
2023-03-26T17:34:41.422Z,5.14
2023-03-26T17:40:36.995Z,5.40
2023-03-26T17:45:41.368Z,5.49
2023-03-26T17:50:50.658Z,5.45
2023-03-26T17:55:52.695Z,5.15
2023-03-26T18:01:04.055Z,5.07
2023-03-26T18:06:09.215Z,5.28
2023-03-26T18:11:25.941Z,5.03
2023-03-26T18:16:33.676Z,5.01
2023-03-26T18:21:36.968Z,4.84
2023-03-26T18:26:41.728Z,5.01
2023-03-26T18:31:46.549Z,4.92
2023-03-26T18:36:58.867Z,5.17
2023-03-26T18:42:00.558Z,4.88
2023-03-26T18:47:06.807Z,5.28
2023-03-26T18:52:13.303Z,5.06
2023-03-26T18:57:21.574Z,4.88
2023-03-26T19:02:25.303Z,5.28
2023-03-26T19:07:27.128Z,5.31
2023-03-26T19:12:30.796Z,5.52
2023-03-26T19:17:40.295Z,5.44
2023-03-26T19:22:42.094Z,5.51
2023-03-26T19:27:44.631Z,5.55
2023-03-26T19:32:54.304Z,5.54
2023-03-26T19:37:55.978Z,5.18
2023-03-26T19:42:57.569Z,4.90
2023-03-26T19:48:13.833Z,5.08
2023-03-26T19:53:21.204Z,5.18
2023-03-26T19:58:22.881Z,5.03
2023-03-26T20:03:29.348Z,5.43
2023-03-26T20:08:30.976Z,5.53
2023-03-26T20:13:32.505Z,5.46
2023-03-26T20:18:35.457Z,5.40
2023-03-26T20:23:36.944Z,5.49
2023-03-26T20:28:47.410Z,5.39
2023-03-26T20:33:52.803Z,5.35
2023-03-26T20:38:54.389Z,5.34
2023-03-26T20:43:55.949Z,5.22
2023-03-26T20:48:59.000Z,5.06
2023-03-26T20:54:00.552Z,5.18
2023-03-26T20:59:10.363Z,5.23
2023-03-26T21:04:14.281Z,5.22
2023-03-26T21:09:18.918Z,5.17
2023-03-26T21:14:23.852Z,5.15
2023-03-26T21:19:27.265Z,5.11
2023-03-26T21:24:40.225Z,5.08
2023-03-26T21:29:42.410Z,5.13
2023-03-26T21:34:55.455Z,4.97
2023-03-26T21:39:59.988Z,4.92
2023-03-26T21:45:02.064Z,5.01
2023-03-26T21:50:06.957Z,4.88
2023-03-26T21:55:10.783Z,4.90
2023-03-26T22:00:14.342Z,4.69
2023-03-26T22:05:19.418Z,4.69
2023-03-26T22:10:21.119Z,4.68
2023-03-26T22:15:22.926Z,4.75
2023-03-26T22:20:25.698Z,4.51
2023-03-26T22:25:27.352Z,4.68
2023-03-26T22:30:28.972Z,4.62
2023-03-26T22:35:31.883Z,4.09
2023-03-26T22:40:33.376Z,4.49
2023-03-26T22:45:34.819Z,4.29
2023-03-26T22:50:37.638Z,4.13
2023-03-26T22:55:39.109Z,4.30
2023-03-26T23:00:40.547Z,4.17
2023-03-26T23:05:43.413Z,4.00
2023-03-26T23:10:44.838Z,4.08
2023-03-26T23:15:48.684Z,3.99
2023-03-26T23:20:52.631Z,3.80
2023-03-26T23:25:54.208Z,3.89
2023-03-26T23:30:56.860Z,3.59
2023-03-26T23:36:00.055Z,3.98
2023-03-26T23:41:01.943Z,3.68
2023-03-26T23:46:03.491Z,3.97
2023-03-26T23:51:07.019Z,4.00
2023-03-26T23:56:09.384Z,3.71
